createdAt,value
2019-04-22T00:05:14.288Z,101483.88
2019-04-22T00:10:43.708Z,101480.23
2019-04-22T00:15:36.768Z,101471.48
2019-04-22T00:20:52.693Z,101478.84
2019-04-22T00:26:01.973Z,101466.20
2019-04-22T00:31:11.834Z,101459.20
2019-04-22T00:36:16.613Z,101458.80
2019-04-22T00:41:28.685Z,101458.80
2019-04-22T00:46:32.432Z,101466.63
2019-04-22T00:51:48.738Z,101471.52
2019-04-22T00:56:47.934Z,101461.31
2019-04-22T01:01:53.999Z,101461.31
2019-04-22T01:07:07.681Z,101479.49
2019-04-22T01:12:16.633Z,101476.72
2019-04-22T01:17:12.137Z,101476.72
2019-04-22T01:22:23.489Z,101488.70
2019-04-22T01:27:27.663Z,101497.87
2019-04-22T01:32:26.306Z,101505.17
2019-04-22T01:37:45.833Z,101511.42
2019-04-22T01:43:03.824Z,101507.06
2019-04-22T01:48:05.427Z,101500.04
2019-04-22T01:53:13.429Z,101501.43
2019-04-22T01:58:21.067Z,101476.59
2019-04-22T02:03:36.089Z,101472.89
2019-04-22T02:08:44.626Z,101471.67
2019-04-22T02:13:49.368Z,101470.69
2019-04-22T02:18:56.074Z,101476.80
2019-04-22T02:24:20.082Z,101472.64
2019-04-22T02:29:06.441Z,101488.97
2019-04-22T02:35:27.168Z,101482.05
2019-04-22T02:39:24.313Z,101477.33
2019-04-22T02:44:35.553Z,101468.95
2019-04-22T02:54:56.814Z,101458.82
2019-04-22T03:00:09.695Z,101451.68
2019-04-22T03:05:09.086Z,101450.35
2019-04-22T03:10:18.875Z,101451.11
2019-04-22T03:15:20.256Z,101445.14
2019-04-22T03:20:33.867Z,101439.27
2019-04-22T03:31:40.559Z,101441.65
2019-04-22T03:46:50.942Z,101436.22
2019-04-22T03:52:00.260Z,101433.13
2019-04-22T04:07:22.489Z,101425.05
2019-04-22T04:17:29.327Z,101420.80
2019-04-22T04:32:55.360Z,101430.94
2019-04-22T04:37:55.166Z,101422.50
2019-04-22T04:43:00.951Z,101432.11
2019-04-22T04:48:14.461Z,101446.66
2019-04-22T04:53:22.910Z,101445.88
2019-04-22T04:58:47.455Z,101440.73
2019-04-22T05:03:49.377Z,101446.05
2019-04-22T05:09:03.739Z,101454.54
2019-04-22T05:13:57.669Z,101446.24
2019-04-22T05:24:09.300Z,101455.95
2019-04-22T05:29:12.819Z,101467.47
2019-04-22T05:34:14.412Z,101474.06
2019-04-22T05:39:24.590Z,101481.09
2019-04-22T05:44:39.575Z,101481.09
2019-04-22T05:49:35.369Z,101483.17
2019-04-22T05:54:49.602Z,101495.91
2019-04-22T06:00:04.655Z,101495.66
2019-04-22T06:05:03.724Z,101513.42
2019-04-22T06:10:09.933Z,101513.42
2019-04-22T06:15:18.435Z,101516.80
2019-04-22T06:20:28.586Z,101538.39
2019-04-22T06:25:52.510Z,101541.56
2019-04-22T06:30:41.489Z,101545.16
2019-04-22T06:35:54.585Z,101544.75
2019-04-22T06:41:04.493Z,101551.57
2019-04-22T06:46:09.896Z,101560.22
2019-04-22T06:51:15.270Z,101569.73
2019-04-22T06:56:15.801Z,101560.66
2019-04-22T07:01:27.592Z,101571.20
2019-04-22T07:11:41.745Z,101576.59
2019-04-22T07:16:54.525Z,101573.89
2019-04-22T07:21:57.172Z,101579.75
2019-04-22T07:27:10.271Z,101587.64
2019-04-22T07:32:15.361Z,101578.72
2019-04-22T07:37:32.968Z,101576.25
2019-04-22T07:42:36.862Z,101588.22
2019-04-22T07:52:44.922Z,101605.20
2019-04-22T07:57:51.953Z,101609.39
2019-04-22T08:03:07.975Z,101604.61
2019-04-22T08:08:17.414Z,101611.38
2019-04-22T08:13:19.581Z,101604.00
2019-04-22T08:23:39.454Z,101606.82
2019-04-22T08:28:45.984Z,101603.62
2019-04-22T08:33:47.160Z,101607.85
2019-04-22T08:39:04.492Z,101599.77
2019-04-22T08:44:13.398Z,101605.73
2019-04-22T08:49:14.835Z,101596.73
2019-04-22T08:54:24.611Z,101595.66
2019-04-22T08:59:28.156Z,101580.88
2019-04-22T09:04:39.126Z,101593.34
2019-04-22T09:09:48.582Z,101574.27
2019-04-22T09:14:49.350Z,101580.95
2019-04-22T09:20:00.693Z,101573.34
2019-04-22T09:25:09.902Z,101561.33
2019-04-22T09:30:18.971Z,101555.94
2019-04-22T09:35:24.897Z,101560.22
2019-04-22T09:40:35.838Z,101555.84
2019-04-22T09:45:42.724Z,101545.99
2019-04-22T09:50:54.291Z,101542.98
2019-04-22T09:56:03.959Z,101538.42
2019-04-22T10:06:30.902Z,101535.49
2019-04-22T10:11:32.657Z,101532.41
2019-04-22T10:22:03.000Z,101526.47
2019-04-22T10:26:52.914Z,101517.11
2019-04-22T10:32:05.635Z,101526.96
2019-04-22T10:36:44.084Z,101512.45
2019-04-22T10:41:50.636Z,101506.49
2019-04-22T10:46:57.950Z,101509.12
2019-04-22T10:52:04.603Z,101502.50
2019-04-22T10:57:10.831Z,101509.87
2019-04-22T11:02:17.338Z,101503.59
2019-04-22T11:07:31.079Z,101486.95
2019-04-22T11:12:33.893Z,101487.50
2019-04-22T11:17:38.031Z,101487.20
2019-04-22T11:22:44.672Z,101466.65
2019-04-22T11:27:51.354Z,101467.28
2019-04-22T11:32:58.398Z,101468.11
2019-04-22T11:38:04.730Z,101467.07
2019-04-22T11:43:10.571Z,101456.97
2019-04-22T11:48:17.636Z,101456.02
2019-04-22T11:53:24.842Z,101450.43
2019-04-22T11:58:32.970Z,101464.87
2019-04-22T12:03:40.011Z,101451.45
2019-04-22T12:08:45.956Z,101461.75
2019-04-22T12:13:51.940Z,101446.63
2019-04-22T12:18:58.756Z,101437.29
2019-04-22T12:24:05.524Z,101440.02
2019-04-22T12:29:13.076Z,101449.56
2019-04-22T12:34:19.630Z,101436.64
2019-04-22T12:39:27.460Z,101429.30
2019-04-22T12:44:33.463Z,101415.75
2019-04-22T12:49:42.099Z,101419.28
2019-04-22T12:54:46.963Z,101416.63
2019-04-22T12:59:53.333Z,101412.02
2019-04-22T13:05:00.587Z,101417.77
2019-04-22T13:10:13.638Z,101402.84
2019-04-22T13:15:20.181Z,101403.72
2019-04-22T13:20:26.276Z,101401.22
2019-04-22T13:25:32.556Z,101402.40
2019-04-22T13:30:38.713Z,101399.57
2019-04-22T13:35:45.816Z,101393.91
2019-04-22T13:41:10.838Z,101405.59
2019-04-22T13:45:59.083Z,101408.84
2019-04-22T13:51:40.980Z,101416.55
2019-04-22T13:56:35.391Z,101407.36
2019-04-22T14:01:24.824Z,101404.66
2019-04-22T14:06:31.124Z,101403.68
2019-04-22T14:11:46.157Z,101418.58
2019-04-22T14:16:45.128Z,101406.46
2019-04-22T14:21:51.594Z,101412.95
2019-04-22T14:27:13.821Z,101405.59
2019-04-22T14:32:13.250Z,101395.41
2019-04-22T14:37:14.236Z,101393.55
2019-04-22T14:42:39.482Z,101387.67
2019-04-22T14:47:58.197Z,101380.31
2019-04-22T14:52:58.215Z,101387.52
2019-04-22T14:57:43.823Z,101373.99
2019-04-22T15:02:49.917Z,101385.73
2019-04-22T15:07:57.071Z,101382.15
2019-04-22T15:13:03.097Z,101378.58
2019-04-22T15:18:19.889Z,101380.78
2019-04-22T15:23:26.767Z,101375.34
2019-04-22T15:28:33.381Z,101369.22
2019-04-22T15:33:41.970Z,101365.51
2019-04-22T15:38:49.147Z,101370.83
2019-04-22T15:43:55.144Z,101372.34
2019-04-22T15:49:02.159Z,101363.42
2019-04-22T15:54:09.709Z,101367.12
2019-04-22T15:59:35.075Z,101368.19
2019-04-22T16:04:23.062Z,101374.31
2019-04-22T16:09:29.128Z,101364.34
2019-04-22T16:14:41.410Z,101372.15
2019-04-22T16:19:43.374Z,101376.63
2019-04-22T16:24:54.152Z,101371.56
2019-04-22T16:30:01.341Z,101368.98
2019-04-22T16:35:08.818Z,101369.66
2019-04-22T16:40:14.810Z,101377.05
2019-04-22T16:45:21.807Z,101370.91
2019-04-22T16:50:29.197Z,101370.59
2019-04-22T16:55:35.166Z,101367.72
2019-04-22T17:00:42.759Z,101375.96
2019-04-22T17:05:51.681Z,101368.80
2019-04-22T17:10:57.760Z,101369.27
2019-04-22T17:16:04.879Z,101361.95
2019-04-22T17:21:12.414Z,101362.81
2019-04-22T17:26:18.870Z,101361.35
2019-04-22T17:31:24.896Z,101361.60
2019-04-22T17:36:31.964Z,101359.08
2019-04-22T17:41:55.734Z,101364.40
2019-04-22T17:47:10.709Z,101364.25
2019-04-22T17:52:24.676Z,101369.17
2019-04-22T17:57:49.220Z,101366.75
2019-04-22T18:02:32.250Z,101365.87
2019-04-22T18:07:49.330Z,101369.97
2019-04-22T18:13:01.731Z,101368.05
2019-04-22T18:18:06.506Z,101368.09
2019-04-22T18:22:56.987Z,101371.88
2019-04-22T18:28:25.639Z,101372.57
2019-04-22T18:33:27.409Z,101383.61
2019-04-22T18:38:39.691Z,101378.67
2019-04-22T18:43:42.559Z,101379.16
2019-04-22T18:48:46.514Z,101386.44
2019-04-22T18:54:00.417Z,101378.28
2019-04-22T18:59:00.356Z,101379.55
2019-04-22T19:04:05.844Z,101381.23
2019-04-22T19:09:38.679Z,101383.09
2019-04-22T19:14:45.434Z,101381.19
2019-04-22T19:19:49.852Z,101379.77
2019-04-22T19:24:51.783Z,101384.16
2019-04-22T19:30:07.385Z,101377.67
2019-04-22T19:35:04.892Z,101376.20
2019-04-22T19:40:25.843Z,101380.83
2019-04-22T19:45:19.973Z,101376.11
2019-04-22T19:50:40.860Z,101369.47
2019-04-22T19:55:40.930Z,101362.87
2019-04-22T20:00:54.957Z,101364.36
2019-04-22T20:06:11.693Z,101371.45
2019-04-22T20:11:22.657Z,101369.99
2019-04-22T20:16:27.430Z,101370.31
2019-04-22T20:21:40.576Z,101362.98
2019-04-22T20:26:50.118Z,101357.41
2019-04-22T20:31:53.093Z,101348.54
2019-04-22T20:37:06.497Z,101344.16
2019-04-22T20:42:17.797Z,101339.16
2019-04-22T20:47:14.968Z,101333.15
2019-04-22T20:52:36.287Z,101324.78
2019-04-22T20:57:35.264Z,101323.57
2019-04-22T21:02:32.357Z,101323.20
2019-04-22T21:07:38.597Z,101316.50
2019-04-22T21:12:48.187Z,101311.08
2019-04-22T21:18:02.601Z,101314.25
2019-04-22T21:23:11.064Z,101312.51
2019-04-22T21:28:23.014Z,101312.02
2019-04-22T21:33:18.508Z,101306.31
2019-04-22T21:38:34.221Z,101309.20
2019-04-22T21:43:42.106Z,101302.48
2019-04-22T21:48:46.453Z,101302.00
2019-04-22T21:54:06.873Z,101304.18
2019-04-22T21:59:07.773Z,101298.69
2019-04-22T22:04:17.343Z,101303.39
2019-04-22T22:09:25.492Z,101303.28
2019-04-22T22:14:31.663Z,101296.72
2019-04-22T22:19:37.963Z,101303.28
2019-04-22T22:24:49.879Z,101286.89
2019-04-22T22:30:15.179Z,101296.28
2019-04-22T22:35:06.834Z,101290.46
2019-04-22T22:40:02.781Z,101288.48
2019-04-22T22:45:10.610Z,101284.78
2019-04-22T22:50:28.349Z,101278.24
2019-04-22T22:55:35.826Z,101278.92
2019-04-22T23:00:40.752Z,101267.38
2019-04-22T23:05:57.426Z,101274.92
2019-04-22T23:16:00.466Z,101272.42
2019-04-22T23:20:59.638Z,101270.26
2019-04-22T23:26:40.733Z,101264.11
2019-04-22T23:31:36.839Z,101255.75
2019-04-22T23:37:07.338Z,101254.23
2019-04-22T23:42:19.065Z,101254.08
2019-04-22T23:47:24.649Z,101247.56
2019-04-22T23:52:35.937Z,101241.20
2019-04-22T23:57:55.351Z,101240.73
